sensor_id;sensor_type;location;lat;lon;timestamp;pressure;altitude;pressure_sealevel;temperature;humidity
33075;BME280;76138;50.768;7.212;2024-03-29T00:01:49;98371.47;;;9.31;63.98
33075;BME280;76138;50.768;7.212;2024-03-29T00:04:19;98376.78;;;9.21;64.08
33075;BME280;76138;50.768;7.212;2024-03-29T00:06:45;98364.19;;;9.25;63.76
33075;BME280;76138;50.768;7.212;2024-03-29T00:09:10;98358.75;;;9.13;64.68
33075;BME280;76138;50.768;7.212;2024-03-29T00:11:36;98359.31;;;9.77;62.46
33075;BME280;76138;50.768;7.212;2024-03-29T00:14:20;98356.19;;;9.40;63.18
33075;BME280;76138;50.768;7.212;2024-03-29T00:16:46;98321.78;;;9.26;63.47
33075;BME280;76138;50.768;7.212;2024-03-29T00:19:11;98330.22;;;9.52;62.77
33075;BME280;76138;50.768;7.212;2024-03-29T00:21:36;98320.72;;;8.98;64.79
33075;BME280;76138;50.768;7.212;2024-03-29T00:24:01;98321.56;;;8.99;64.78
33075;BME280;76138;50.768;7.212;2024-03-29T00:26:27;98309.38;;;8.95;64.83
33075;BME280;76138;50.768;7.212;2024-03-29T00:28:52;98311.41;;;8.88;65.63
33075;BME280;76138;50.768;7.212;2024-03-29T00:31:17;98319.28;;;8.96;64.83
33075;BME280;76138;50.768;7.212;2024-03-29T00:33:43;98344.63;;;9.09;64.05
33075;BME280;76138;50.768;7.212;2024-03-29T00:36:08;98338.72;;;8.89;65.33
33075;BME280;76138;50.768;7.212;2024-03-29T00:38:33;98346.44;;;9.04;64.47
33075;BME280;76138;50.768;7.212;2024-03-29T00:40:59;98349.25;;;8.92;65.04
33075;BME280;76138;50.768;7.212;2024-03-29T00:43:24;98325.09;;;8.82;64.79
33075;BME280;76138;50.768;7.212;2024-03-29T00:45:49;98350.25;;;9.03;64.57
33075;BME280;76138;50.768;7.212;2024-03-29T00:48:15;98349.19;;;8.75;65.09
33075;BME280;76138;50.768;7.212;2024-03-29T00:50:42;98357.06;;;8.84;65.09
33075;BME280;76138;50.768;7.212;2024-03-29T00:53:07;98363.13;;;8.97;64.86
33075;BME280;76138;50.768;7.212;2024-03-29T00:55:33;98355.69;;;8.98;64.84
33075;BME280;76138;50.768;7.212;2024-03-29T00:58:02;98356.47;;;9.10;64.05
33075;BME280;76138;50.768;7.212;2024-03-29T01:00:49;98367.97;;;9.07;64.46
33075;BME280;76138;50.768;7.212;2024-03-29T01:03:15;98351.50;;;8.95;65.26
33075;BME280;76138;50.768;7.212;2024-03-29T01:05:40;98368.19;;;9.34;63.92
33075;BME280;76138;50.768;7.212;2024-03-29T01:08:05;98341.63;;;9.11;64.29
33075;BME280;76138;50.768;7.212;2024-03-29T01:10:31;98364.34;;;9.35;63.85
33075;BME280;76138;50.768;7.212;2024-03-29T01:12:56;98361.31;;;9.20;64.16
33075;BME280;76138;50.768;7.212;2024-03-29T01:15:21;98347.97;;;9.11;64.69
33075;BME280;76138;50.768;7.212;2024-03-29T01:17:47;98342.47;;;9.11;65.40
33075;BME280;76138;50.768;7.212;2024-03-29T01:20:13;98336.50;;;9.03;65.71
33075;BME280;76138;50.768;7.212;2024-03-29T01:22:38;98325.94;;;9.11;65.40
33075;BME280;76138;50.768;7.212;2024-03-29T01:25:04;98307.72;;;9.10;65.78
33075;BME280;76138;50.768;7.212;2024-03-29T01:27:33;98306.50;;;9.35;65.27
33075;BME280;76138;50.768;7.212;2024-03-29T01:29:58;98305.97;;;9.21;64.24
33075;BME280;76138;50.768;7.212;2024-03-29T01:32:23;98331.97;;;9.25;64.37
33075;BME280;76138;50.768;7.212;2024-03-29T01:34:48;98341.16;;;9.31;63.82
33075;BME280;76138;50.768;7.212;2024-03-29T01:37:14;98332.63;;;9.15;63.88
33075;BME280;76138;50.768;7.212;2024-03-29T01:39:39;98350.91;;;9.22;64.57
33075;BME280;76138;50.768;7.212;2024-03-29T01:42:05;98365.63;;;9.27;63.68
33075;BME280;76138;50.768;7.212;2024-03-29T01:44:30;98361.28;;;9.31;64.31
33075;BME280;76138;50.768;7.212;2024-03-29T01:46:56;98335.66;;;9.31;64.09
33075;BME280;76138;50.768;7.212;2024-03-29T01:49:21;98340.31;;;9.30;64.32
33075;BME280;76138;50.768;7.212;2024-03-29T01:51:47;98347.56;;;9.36;64.25
33075;BME280;76138;50.768;7.212;2024-03-29T01:54:12;98314.63;;;9.58;63.29
33075;BME280;76138;50.768;7.212;2024-03-29T01:56:39;98321.09;;;9.35;64.71
33075;BME280;76138;50.768;7.212;2024-03-29T01:59:12;98311.50;;;9.55;63.87
33075;BME280;76138;50.768;7.212;2024-03-29T02:01:40;98301.06;;;9.73;62.99
33075;BME280;76138;50.768;7.212;2024-03-29T02:04:05;98309.78;;;9.32;63.99
33075;BME280;76138;50.768;7.212;2024-03-29T02:06:32;98305.91;;;9.33;64.56
33075;BME280;76138;50.768;7.212;2024-03-29T02:08:57;98322.28;;;9.39;64.24
33075;BME280;76138;50.768;7.212;2024-03-29T02:11:22;98314.59;;;9.41;64.21
33075;BME280;76138;50.768;7.212;2024-03-29T02:13:49;98299.56;;;9.49;63.64
33075;BME280;76138;50.768;7.212;2024-03-29T02:16:15;98278.34;;;9.49;63.90
33075;BME280;76138;50.768;7.212;2024-03-29T02:18:40;98288.63;;;9.54;64.20
33075;BME280;76138;50.768;7.212;2024-03-29T02:21:06;98283.34;;;9.36;64.56
33075;BME280;76138;50.768;7.212;2024-03-29T02:23:32;98266.91;;;9.58;63.63
33075;BME280;76138;50.768;7.212;2024-03-29T02:26:01;98266.47;;;9.49;64.14
33075;BME280;76138;50.768;7.212;2024-03-29T02:28:26;98271.50;;;9.52;63.81
33075;BME280;76138;50.768;7.212;2024-03-29T02:30:51;98244.19;;;9.50;64.59
33075;BME280;76138;50.768;7.212;2024-03-29T02:33:17;98241.66;;;9.66;63.32
33075;BME280;76138;50.768;7.212;2024-03-29T02:39:04;98244.38;;;9.82;63.25
33075;BME280;76138;50.768;7.212;2024-03-29T02:44:30;98253.31;;;9.90;62.14
33075;BME280;76138;50.768;7.212;2024-03-29T02:46:56;98252.03;;;9.97;62.15
33075;BME280;76138;50.768;7.212;2024-03-29T02:49:21;98242.28;;;9.90;62.25
33075;BME280;76138;50.768;7.212;2024-03-29T02:51:46;98237.78;;;9.83;63.05
33075;BME280;76138;50.768;7.212;2024-03-29T02:54:11;98237.06;;;10.32;61.32
33075;BME280;76138;50.768;7.212;2024-03-29T02:56:37;98248.50;;;9.63;63.76
33075;BME280;76138;50.768;7.212;2024-03-29T03:02:32;98256.88;;;9.35;65.18
33075;BME280;76138;50.768;7.212;2024-03-29T03:04:57;98248.38;;;9.36;65.56
33075;BME280;76138;50.768;7.212;2024-03-29T03:07:24;98210.03;;;9.35;64.80
33075;BME280;76138;50.768;7.212;2024-03-29T03:10:08;98237.44;;;9.25;66.21
33075;BME280;76138;50.768;7.212;2024-03-29T03:12:53;98218.16;;;8.91;67.46
33075;BME280;76138;50.768;7.212;2024-03-29T03:15:19;98232.91;;;9.02;67.60
33075;BME280;76138;50.768;7.212;2024-03-29T03:17:44;98245.03;;;9.17;67.00
33075;BME280;76138;50.768;7.212;2024-03-29T03:20:40;98271.19;;;9.15;67.28
33075;BME280;76138;50.768;7.212;2024-03-29T03:23:06;98280.16;;;8.94;67.66
33075;BME280;76138;50.768;7.212;2024-03-29T03:25:31;98282.16;;;8.98;67.60
33075;BME280;76138;50.768;7.212;2024-03-29T03:27:56;98282.00;;;9.05;67.28
33075;BME280;76138;50.768;7.212;2024-03-29T03:30:22;98286.84;;;8.98;67.82
33075;BME280;76138;50.768;7.212;2024-03-29T03:32:47;98258.88;;;9.06;67.16
33075;BME280;76138;50.768;7.212;2024-03-29T03:35:13;98260.31;;;9.25;67.16
33075;BME280;76138;50.768;7.212;2024-03-29T03:37:44;98251.81;;;9.27;67.01
33075;BME280;76138;50.768;7.212;2024-03-29T03:43:13;98235.66;;;9.02;67.43
33075;BME280;76138;50.768;7.212;2024-03-29T03:45:40;98244.03;;;9.07;67.71
33075;BME280;76138;50.768;7.212;2024-03-29T03:48:07;98224.81;;;8.95;68.10
33075;BME280;76138;50.768;7.212;2024-03-29T03:50:33;98238.44;;;9.18;67.57
33075;BME280;76138;50.768;7.212;2024-03-29T03:52:58;98242.47;;;9.28;67.34
33075;BME280;76138;50.768;7.212;2024-03-29T03:55:24;98255.56;;;9.37;67.02
33075;BME280;76138;50.768;7.212;2024-03-29T03:57:49;98256.63;;;9.36;66.94
33075;BME280;76138;50.768;7.212;2024-03-29T04:00:18;98250.78;;;9.49;66.57
33075;BME280;76138;50.768;7.212;2024-03-29T04:02:50;98235.09;;;9.33;66.86
33075;BME280;76138;50.768;7.212;2024-03-29T04:05:20;98248.13;;;9.21;66.99
33075;BME280;76138;50.768;7.212;2024-03-29T04:08:22;98242.28;;;9.34;66.73
33075;BME280;76138;50.768;7.212;2024-03-29T04:10:47;98238.69;;;9.50;65.96
33075;BME280;76138;50.768;7.212;2024-03-29T04:13:13;98242.72;;;9.81;65.25
33075;BME280;76138;50.768;7.212;2024-03-29T04:15:38;98231.25;;;9.51;66.30
33075;BME280;76138;50.768;7.212;2024-03-29T04:18:03;98228.56;;;9.95;65.03
33075;BME280;76138;50.768;7.212;2024-03-29T04:20:29;98221.78;;;10.24;64.57
33075;BME280;76138;50.768;7.212;2024-03-29T04:22:54;98213.69;;;9.96;65.38
33075;BME280;76138;50.768;7.212;2024-03-29T04:25:19;98195.59;;;9.83;65.51
33075;BME280;76138;50.768;7.212;2024-03-29T04:27:44;98178.88;;;9.90;64.79
33075;BME280;76138;50.768;7.212;2024-03-29T04:30:10;98206.47;;;9.73;64.38
33075;BME280;76138;50.768;7.212;2024-03-29T04:32:39;98176.50;;;9.76;65.27
33075;BME280;76138;50.768;7.212;2024-03-29T04:35:04;98204.03;;;9.38;66.87
33075;BME280;76138;50.768;7.212;2024-03-29T04:37:29;98203.06;;;9.27;66.96
33075;BME280;76138;50.768;7.212;2024-03-29T04:39:55;98194.28;;;9.30;66.62
33075;BME280;76138;50.768;7.212;2024-03-29T04:42:20;98195.13;;;9.31;66.57
33075;BME280;76138;50.768;7.212;2024-03-29T04:44:45;98190.44;;;9.70;65.79
33075;BME280;76138;50.768;7.212;2024-03-29T04:47:11;98171.72;;;9.72;65.36
33075;BME280;76138;50.768;7.212;2024-03-29T04:49:36;98192.88;;;9.66;66.02
33075;BME280;76138;50.768;7.212;2024-03-29T04:52:09;98194.53;;;9.67;65.39
33075;BME280;76138;50.768;7.212;2024-03-29T04:54:34;98191.66;;;9.57;65.37
33075;BME280;76138;50.768;7.212;2024-03-29T04:57:00;98178.91;;;9.73;65.62
33075;BME280;76138;50.768;7.212;2024-03-29T04:59:42;98164.75;;;9.86;65.21
33075;BME280;76138;50.768;7.212;2024-03-29T05:02:07;98171.69;;;9.88;65.13
33075;BME280;76138;50.768;7.212;2024-03-29T05:04:32;98164.72;;;9.64;66.23
33075;BME280;76138;50.768;7.212;2024-03-29T05:06:58;98182.75;;;9.94;65.60
33075;BME280;76138;50.768;7.212;2024-03-29T05:09:24;98181.09;;;9.71;66.26
33075;BME280;76138;50.768;7.212;2024-03-29T05:11:50;98180.84;;;9.72;66.71
33075;BME280;76138;50.768;7.212;2024-03-29T05:14:16;98171.03;;;9.81;67.68
33075;BME280;76138;50.768;7.212;2024-03-29T05:16:44;98182.44;;;10.12;68.95
33075;BME280;76138;50.768;7.212;2024-03-29T05:19:09;98180.84;;;9.94;72.00
33075;BME280;76138;50.768;7.212;2024-03-29T05:24:37;98196.94;;;10.02;72.56
33075;BME280;76138;50.768;7.212;2024-03-29T05:27:03;98192.63;;;10.11;73.41
33075;BME280;76138;50.768;7.212;2024-03-29T05:29:28;98203.06;;;10.04;75.06
33075;BME280;76138;50.768;7.212;2024-03-29T05:31:53;98209.25;;;10.16;75.35
33075;BME280;76138;50.768;7.212;2024-03-29T05:34:20;98190.47;;;10.13;75.43
33075;BME280;76138;50.768;7.212;2024-03-29T05:40:09;98194.63;;;10.16;76.62
33075;BME280;76138;50.768;7.212;2024-03-29T05:42:34;98221.31;;;10.10;78.07
33075;BME280;76138;50.768;7.212;2024-03-29T05:45:02;98213.13;;;10.15;79.21
33075;BME280;76138;50.768;7.212;2024-03-29T05:47:28;98215.75;;;10.05;80.95
33075;BME280;76138;50.768;7.212;2024-03-29T05:49:54;98197.38;;;9.94;80.75
33075;BME280;76138;50.768;7.212;2024-03-29T05:52:19;98199.06;;;9.95;81.19
33075;BME280;76138;50.768;7.212;2024-03-29T05:54:46;98193.59;;;10.00;81.13
33075;BME280;76138;50.768;7.212;2024-03-29T05:57:11;98193.16;;;9.86;82.67
33075;BME280;76138;50.768;7.212;2024-03-29T05:59:37;98195.91;;;9.86;82.94
33075;BME280;76138;50.768;7.212;2024-03-29T06:02:04;98201.94;;;9.83;84.10
33075;BME280;76138;50.768;7.212;2024-03-29T06:04:30;98193.03;;;9.98;83.45
33075;BME280;76138;50.768;7.212;2024-03-29T06:07:02;98205.03;;;9.87;84.39
33075;BME280;76138;50.768;7.212;2024-03-29T06:09:29;98195.22;;;9.74;84.60
33075;BME280;76138;50.768;7.212;2024-03-29T06:11:55;98180.41;;;10.02;84.40
33075;BME280;76138;50.768;7.212;2024-03-29T06:14:20;98189.50;;;10.03;84.23
33075;BME280;76138;50.768;7.212;2024-03-29T06:17:06;98188.84;;;9.96;84.72
33075;BME280;76138;50.768;7.212;2024-03-29T06:19:55;98190.78;;;10.17;84.06
33075;BME280;76138;50.768;7.212;2024-03-29T06:22:28;98189.91;;;9.90;84.98
33075;BME280;76138;50.768;7.212;2024-03-29T06:24:58;98193.97;;;10.09;84.59
33075;BME280;76138;50.768;7.212;2024-03-29T06:27:24;98206.06;;;10.25;83.48
33075;BME280;76138;50.768;7.212;2024-03-29T06:29:50;98199.91;;;10.17;84.71
33075;BME280;76138;50.768;7.212;2024-03-29T06:32:23;98205.41;;;10.17;84.67
33075;BME280;76138;50.768;7.212;2024-03-29T06:35:19;98203.13;;;10.31;84.59
33075;BME280;76138;50.768;7.212;2024-03-29T06:37:47;98208.78;;;10.19;85.89
33075;BME280;76138;50.768;7.212;2024-03-29T06:40:12;98197.13;;;9.96;86.09
33075;BME280;76138;50.768;7.212;2024-03-29T06:42:38;98198.84;;;10.18;86.02
33075;BME280;76138;50.768;7.212;2024-03-29T06:45:04;98188.41;;;10.26;85.68
33075;BME280;76138;50.768;7.212;2024-03-29T06:47:31;98209.84;;;10.40;86.01
33075;BME280;76138;50.768;7.212;2024-03-29T06:49:56;98213.00;;;10.49;85.86
33075;BME280;76138;50.768;7.212;2024-03-29T06:52:22;98199.28;;;10.59;85.42
33075;BME280;76138;50.768;7.212;2024-03-29T06:54:47;98203.81;;;10.43;86.75
33075;BME280;76138;50.768;7.212;2024-03-29T06:57:12;98208.25;;;10.44;87.27
33075;BME280;76138;50.768;7.212;2024-03-29T06:59:41;98195.75;;;10.64;86.52
33075;BME280;76138;50.768;7.212;2024-03-29T07:05:37;98204.81;;;10.59;87.05
33075;BME280;76138;50.768;7.212;2024-03-29T07:08:26;98230.22;;;10.83;86.47
33075;BME280;76138;50.768;7.212;2024-03-29T07:11:01;98238.81;;;11.18;84.54
33075;BME280;76138;50.768;7.212;2024-03-29T07:13:32;98255.97;;;11.20;84.34
33075;BME280;76138;50.768;7.212;2024-03-29T07:16:01;98263.66;;;11.45;83.83
33075;BME280;76138;50.768;7.212;2024-03-29T07:18:27;98263.03;;;11.38;83.96
33075;BME280;76138;50.768;7.212;2024-03-29T07:21:00;98278.22;;;11.36;83.77
33075;BME280;76138;50.768;7.212;2024-03-29T07:23:25;98275.38;;;11.62;83.10
33075;BME280;76138;50.768;7.212;2024-03-29T07:26:02;98264.56;;;11.56;83.84
33075;BME280;76138;50.768;7.212;2024-03-29T07:28:28;98253.03;;;11.69;82.65
33075;BME280;76138;50.768;7.212;2024-03-29T07:30:56;98250.75;;;11.56;83.89
33075;BME280;76138;50.768;7.212;2024-03-29T07:33:27;98269.34;;;11.66;83.35
33075;BME280;76138;50.768;7.212;2024-03-29T07:35:53;98257.69;;;11.63;83.17
33075;BME280;76138;50.768;7.212;2024-03-29T07:38:19;98259.06;;;11.61;83.83
33075;BME280;76138;50.768;7.212;2024-03-29T07:40:47;98269.63;;;11.69;83.34
33075;BME280;76138;50.768;7.212;2024-03-29T07:46:28;98284.19;;;11.86;82.82
33075;BME280;76138;50.768;7.212;2024-03-29T07:48:54;98270.03;;;11.83;82.70
33075;BME280;76138;50.768;7.212;2024-03-29T07:51:25;98277.25;;;12.31;81.21
33075;BME280;76138;50.768;7.212;2024-03-29T07:53:50;98276.16;;;11.85;82.91
33075;BME280;76138;50.768;7.212;2024-03-29T07:56:16;98285.13;;;12.02;83.01
33075;BME280;76138;50.768;7.212;2024-03-29T07:58:42;98289.41;;;11.83;83.33
33075;BME280;76138;50.768;7.212;2024-03-29T08:01:20;98286.94;;;11.86;83.65
33075;BME280;76138;50.768;7.212;2024-03-29T08:03:45;98276.19;;;11.95;83.56
33075;BME280;76138;50.768;7.212;2024-03-29T08:06:11;98288.56;;;12.24;82.06
33075;BME280;76138;50.768;7.212;2024-03-29T08:08:36;98286.81;;;12.08;82.40
33075;BME280;76138;50.768;7.212;2024-03-29T08:11:02;98293.44;;;12.07;83.13
33075;BME280;76138;50.768;7.212;2024-03-29T08:13:27;98289.66;;;12.18;82.15
33075;BME280;76138;50.768;7.212;2024-03-29T08:16:00;98303.19;;;12.72;80.31
33075;BME280;76138;50.768;7.212;2024-03-29T08:18:27;98305.44;;;12.23;80.51
33075;BME280;76138;50.768;7.212;2024-03-29T08:20:52;98307.44;;;12.32;81.36
33075;BME280;76138;50.768;7.212;2024-03-29T08:23:20;98305.47;;;12.28;81.31
33075;BME280;76138;50.768;7.212;2024-03-29T08:25:46;98308.09;;;12.55;79.98
33075;BME280;76138;50.768;7.212;2024-03-29T08:28:11;98300.28;;;12.42;80.32
33075;BME280;76138;50.768;7.212;2024-03-29T08:30:36;98309.72;;;12.46;79.64
33075;BME280;76138;50.768;7.212;2024-03-29T08:33:02;98307.06;;;12.66;80.18
33075;BME280;76138;50.768;7.212;2024-03-29T08:35:29;98313.28;;;12.41;80.76
33075;BME280;76138;50.768;7.212;2024-03-29T08:37:54;98301.25;;;12.67;80.25
33075;BME280;76138;50.768;7.212;2024-03-29T08:40:19;98293.38;;;12.44;80.29
33075;BME280;76138;50.768;7.212;2024-03-29T08:42:45;98306.13;;;12.45;80.90
33075;BME280;76138;50.768;7.212;2024-03-29T08:45:10;98285.91;;;12.45;81.19
33075;BME280;76138;50.768;7.212;2024-03-29T08:47:36;98293.75;;;12.63;80.77
33075;BME280;76138;50.768;7.212;2024-03-29T08:50:02;98309.22;;;12.59;80.91
33075;BME280;76138;50.768;7.212;2024-03-29T08:52:29;98306.53;;;12.79;79.96
33075;BME280;76138;50.768;7.212;2024-03-29T08:54:55;98317.41;;;12.96;79.89
33075;BME280;76138;50.768;7.212;2024-03-29T08:57:20;98307.31;;;12.69;79.82
33075;BME280;76138;50.768;7.212;2024-03-29T08:59:45;98303.81;;;12.99;78.59
33075;BME280;76138;50.768;7.212;2024-03-29T09:02:11;98287.72;;;12.91;78.51
33075;BME280;76138;50.768;7.212;2024-03-29T09:04:37;98308.56;;;13.04;77.91
33075;BME280;76138;50.768;7.212;2024-03-29T09:07:02;98316.66;;;13.31;76.97
33075;BME280;76138;50.768;7.212;2024-03-29T09:09:29;98331.13;;;13.38;76.95
33075;BME280;76138;50.768;7.212;2024-03-29T09:11:54;98329.94;;;13.14;78.03
33075;BME280;76138;50.768;7.212;2024-03-29T09:14:20;98326.81;;;13.00;78.30
33075;BME280;76138;50.768;7.212;2024-03-29T09:16:46;98351.06;;;13.25;77.62
33075;BME280;76138;50.768;7.212;2024-03-29T09:19:13;98358.72;;;12.97;78.03
33075;BME280;76138;50.768;7.212;2024-03-29T09:21:39;98354.84;;;12.98;79.59
33075;BME280;76138;50.768;7.212;2024-03-29T09:24:05;98350.97;;;13.04;78.53
33075;BME280;76138;50.768;7.212;2024-03-29T09:26:31;98361.25;;;13.14;78.47
33075;BME280;76138;50.768;7.212;2024-03-29T09:28:56;98356.94;;;13.44;77.61
33075;BME280;76138;50.768;7.212;2024-03-29T09:31:21;98359.41;;;13.35;78.05
33075;BME280;76138;50.768;7.212;2024-03-29T09:33:47;98340.75;;;13.15;78.79
33075;BME280;76138;50.768;7.212;2024-03-29T09:36:15;98335.97;;;13.00;78.68
33075;BME280;76138;50.768;7.212;2024-03-29T09:38:41;98344.59;;;13.14;78.39
33075;BME280;76138;50.768;7.212;2024-03-29T09:41:17;98366.00;;;13.19;78.80
33075;BME280;76138;50.768;7.212;2024-03-29T09:43:47;98364.59;;;13.11;78.55
33075;BME280;76138;50.768;7.212;2024-03-29T09:46:15;98364.91;;;13.30;78.02
33075;BME280;76138;50.768;7.212;2024-03-29T09:48:41;98344.72;;;13.40;78.39
33075;BME280;76138;50.768;7.212;2024-03-29T09:51:08;98354.66;;;13.25;78.51
33075;BME280;76138;50.768;7.212;2024-03-29T09:53:35;98353.84;;;13.25;79.00
33075;BME280;76138;50.768;7.212;2024-03-29T09:56:04;98349.66;;;13.22;79.58
33075;BME280;76138;50.768;7.212;2024-03-29T09:58:33;98344.59;;;13.14;79.71
33075;BME280;76138;50.768;7.212;2024-03-29T10:01:00;98344.66;;;13.29;79.71
33075;BME280;76138;50.768;7.212;2024-03-29T10:03:27;98348.00;;;13.21;80.19
33075;BME280;76138;50.768;7.212;2024-03-29T10:05:57;98361.59;;;13.33;80.26
33075;BME280;76138;50.768;7.212;2024-03-29T10:08:27;98363.28;;;13.34;80.03
33075;BME280;76138;50.768;7.212;2024-03-29T10:10:56;98378.88;;;13.65;79.18
33075;BME280;76138;50.768;7.212;2024-03-29T10:13:21;98361.66;;;13.43;79.54
33075;BME280;76138;50.768;7.212;2024-03-29T10:15:51;98371.34;;;13.51;79.49
33075;BME280;76138;50.768;7.212;2024-03-29T10:18:19;98379.41;;;13.62;79.26
33075;BME280;76138;50.768;7.212;2024-03-29T10:20:45;98381.88;;;13.38;79.39
33075;BME280;76138;50.768;7.212;2024-03-29T10:23:11;98394.94;;;13.53;79.34
33075;BME280;76138;50.768;7.212;2024-03-29T10:25:36;98388.03;;;13.71;78.96
33075;BME280;76138;50.768;7.212;2024-03-29T10:28:02;98380.75;;;13.34;79.48
33075;BME280;76138;50.768;7.212;2024-03-29T10:30:28;98385.78;;;13.63;78.70
33075;BME280;76138;50.768;7.212;2024-03-29T10:33:01;98361.94;;;13.77;77.87
33075;BME280;76138;50.768;7.212;2024-03-29T10:35:47;98375.53;;;13.63;78.60
33075;BME280;76138;50.768;7.212;2024-03-29T10:38:12;98374.72;;;13.73;78.19
33075;BME280;76138;50.768;7.212;2024-03-29T10:40:39;98368.63;;;14.01;76.91
33075;BME280;76138;50.768;7.212;2024-03-29T10:43:08;98358.31;;;13.61;76.98
33075;BME280;76138;50.768;7.212;2024-03-29T10:45:37;98366.94;;;13.80;76.46
33075;BME280;76138;50.768;7.212;2024-03-29T10:48:10;98362.50;;;13.79;76.63
33075;BME280;76138;50.768;7.212;2024-03-29T10:50:36;98363.06;;;13.86;77.19
33075;BME280;76138;50.768;7.212;2024-03-29T10:53:03;98374.19;;;14.01;76.07
33075;BME280;76138;50.768;7.212;2024-03-29T10:55:36;98340.59;;;13.83;75.45
33075;BME280;76138;50.768;7.212;2024-03-29T10:58:03;98378.34;;;14.14;75.82
33075;BME280;76138;50.768;7.212;2024-03-29T11:00:32;98371.94;;;14.34;75.25
33075;BME280;76138;50.768;7.212;2024-03-29T11:03:23;98371.13;;;13.88;76.77
33075;BME280;76138;50.768;7.212;2024-03-29T11:05:55;98353.06;;;13.85;76.10
33075;BME280;76138;50.768;7.212;2024-03-29T11:08:26;98345.28;;;13.97;75.76
33075;BME280;76138;50.768;7.212;2024-03-29T11:10:57;98341.63;;;14.37;74.93
33075;BME280;76138;50.768;7.212;2024-03-29T11:15:54;98355.28;;;14.19;75.98
33075;BME280;76138;50.768;7.212;2024-03-29T11:18:20;98357.50;;;14.12;76.36
33075;BME280;76138;50.768;7.212;2024-03-29T11:20:46;98347.78;;;14.19;75.09
33075;BME280;76138;50.768;7.212;2024-03-29T11:23:17;98377.78;;;13.97;76.08
33075;BME280;76138;50.768;7.212;2024-03-29T11:25:44;98358.34;;;14.02;76.05
33075;BME280;76138;50.768;7.212;2024-03-29T11:28:14;98373.59;;;13.94;77.11
33075;BME280;76138;50.768;7.212;2024-03-29T11:30:45;98367.22;;;13.94;76.78
33075;BME280;76138;50.768;7.212;2024-03-29T11:33:31;98393.59;;;14.12;76.57
33075;BME280;76138;50.768;7.212;2024-03-29T11:36:09;98379.72;;;13.86;76.93
33075;BME280;76138;50.768;7.212;2024-03-29T11:38:35;98378.06;;;14.00;76.85
33075;BME280;76138;50.768;7.212;2024-03-29T11:41:02;98376.09;;;13.91;76.76
33075;BME280;76138;50.768;7.212;2024-03-29T11:43:31;98398.06;;;14.18;75.62
33075;BME280;76138;50.768;7.212;2024-03-29T11:46:02;98405.28;;;13.98;77.19
33075;BME280;76138;50.768;7.212;2024-03-29T11:48:29;98407.75;;;13.95;76.87
33075;BME280;76138;50.768;7.212;2024-03-29T11:50:57;98416.34;;;13.93;77.04
33075;BME280;76138;50.768;7.212;2024-03-29T11:53:23;98407.47;;;13.86;76.77
33075;BME280;76138;50.768;7.212;2024-03-29T11:55:48;98415.28;;;14.04;76.44
33075;BME280;76138;50.768;7.212;2024-03-29T11:58:19;98395.81;;;13.94;76.92
33075;BME280;76138;50.768;7.212;2024-03-29T12:00:45;98404.16;;;13.84;76.63
33075;BME280;76138;50.768;7.212;2024-03-29T12:03:13;98416.09;;;14.10;76.91
33075;BME280;76138;50.768;7.212;2024-03-29T12:05:38;98419.13;;;13.93;77.44
33075;BME280;76138;50.768;7.212;2024-03-29T12:08:04;98411.09;;;14.02;77.05
33075;BME280;76138;50.768;7.212;2024-03-29T12:10:29;98418.31;;;14.08;76.56
33075;BME280;76138;50.768;7.212;2024-03-29T12:12:58;98439.13;;;14.11;77.00
33075;BME280;76138;50.768;7.212;2024-03-29T12:15:24;98429.16;;;13.89;76.41
33075;BME280;76138;50.768;7.212;2024-03-29T12:18:02;98432.47;;;13.96;77.21
33075;BME280;76138;50.768;7.212;2024-03-29T12:20:32;98441.09;;;14.20;76.97
33075;BME280;76138;50.768;7.212;2024-03-29T12:23:02;98454.41;;;14.13;77.34
33075;BME280;76138;50.768;7.212;2024-03-29T12:25:31;98445.81;;;14.09;77.00
33075;BME280;76138;50.768;7.212;2024-03-29T12:27:58;98464.69;;;14.13;77.07
33075;BME280;76138;50.768;7.212;2024-03-29T12:30:24;98473.59;;;14.15;77.09
33075;BME280;76138;50.768;7.212;2024-03-29T12:33:03;98470.53;;;14.01;77.44
33075;BME280;76138;50.768;7.212;2024-03-29T12:35:32;98466.69;;;14.48;76.01
33075;BME280;76138;50.768;7.212;2024-03-29T12:38:02;98473.00;;;14.07;77.02
33075;BME280;76138;50.768;7.212;2024-03-29T12:40:33;98458.59;;;14.36;76.22
33075;BME280;76138;50.768;7.212;2024-03-29T12:43:19;98480.53;;;14.37;76.58
33075;BME280;76138;50.768;7.212;2024-03-29T12:45:45;98478.06;;;14.61;76.01
33075;BME280;76138;50.768;7.212;2024-03-29T12:48:12;98470.50;;;14.21;79.35
33075;BME280;76138;50.768;7.212;2024-03-29T12:50:40;98479.13;;;14.09;80.99
33075;BME280;76138;50.768;7.212;2024-03-29T12:53:08;98494.38;;;13.97;82.20
33075;BME280;76138;50.768;7.212;2024-03-29T12:58:47;98478.28;;;13.89;85.28
33075;BME280;76138;50.768;7.212;2024-03-29T13:01:13;98472.06;;;13.51;86.89
33075;BME280;76138;50.768;7.212;2024-03-29T13:03:38;98473.75;;;13.57;87.31
33075;BME280;76138;50.768;7.212;2024-03-29T13:06:06;98473.75;;;13.62;87.45
33075;BME280;76138;50.768;7.212;2024-03-29T13:08:31;98485.41;;;13.64;88.35
33075;BME280;76138;50.768;7.212;2024-03-29T13:10:56;98481.56;;;13.70;86.89
33075;BME280;76138;50.768;7.212;2024-03-29T13:13:34;98477.69;;;13.92;88.00
33075;BME280;76138;50.768;7.212;2024-03-29T13:15:59;98469.94;;;13.89;86.63
33075;BME280;76138;50.768;7.212;2024-03-29T13:18:25;98471.91;;;13.98;85.85
33075;BME280;76138;50.768;7.212;2024-03-29T13:20:50;98468.84;;;14.00;85.64
33075;BME280;76138;50.768;7.212;2024-03-29T13:23:15;98464.41;;;14.04;84.62
33075;BME280;76138;50.768;7.212;2024-03-29T13:25:41;98483.25;;;13.92;84.12
33075;BME280;76138;50.768;7.212;2024-03-29T13:28:06;98487.44;;;13.99;84.80
33075;BME280;76138;50.768;7.212;2024-03-29T13:30:35;98497.16;;;13.97;84.39
33075;BME280;76138;50.768;7.212;2024-03-29T13:33:07;98495.19;;;13.92;84.02
33075;BME280;76138;50.768;7.212;2024-03-29T13:35:35;98490.19;;;13.84;84.60
33075;BME280;76138;50.768;7.212;2024-03-29T13:38:01;98499.00;;;13.61;86.00
33075;BME280;76138;50.768;7.212;2024-03-29T13:40:26;98495.97;;;13.67;85.27